createdAt,value
2022-09-28T00:00:17.475Z,6.92
2022-09-28T00:05:42.457Z,6.92
2022-09-28T00:11:13.460Z,6.89
2022-09-28T00:16:40.519Z,6.85
2022-09-28T00:22:04.501Z,6.81
2022-09-28T00:27:32.497Z,6.76
2022-09-28T00:32:56.484Z,6.75
2022-09-28T00:38:23.695Z,6.66
2022-09-28T00:43:51.485Z,6.68
2022-09-28T00:49:21.477Z,6.63
2022-09-28T00:54:45.511Z,6.62
2022-09-28T01:00:15.518Z,6.54
2022-09-28T01:05:40.523Z,6.50
2022-09-28T01:11:06.512Z,6.47
2022-09-28T01:16:41.647Z,6.38
2022-09-28T01:22:40.491Z,6.32
2022-09-28T01:28:21.500Z,6.25
2022-09-28T01:33:49.508Z,6.11
2022-09-28T01:39:18.583Z,6.03
2022-09-28T01:44:49.508Z,5.98
2022-09-28T01:50:19.529Z,5.91
2022-09-28T01:55:48.523Z,5.83
2022-09-28T02:01:19.537Z,5.81
2022-09-28T02:06:52.506Z,5.82
2022-09-28T02:12:24.516Z,5.82
2022-09-28T02:17:52.516Z,5.78
2022-09-28T02:23:20.519Z,5.77
2022-09-28T02:28:45.514Z,5.76
2022-09-28T02:34:13.556Z,5.77
2022-09-28T02:39:40.553Z,5.75
2022-09-28T02:45:29.569Z,5.74
2022-09-28T02:51:06.546Z,5.84
2022-09-28T02:56:50.543Z,5.91
2022-09-28T03:02:23.642Z,5.99
2022-09-28T03:08:05.580Z,6.08
2022-09-28T03:13:30.545Z,6.11
2022-09-28T03:18:55.567Z,6.17
2022-09-28T03:24:24.584Z,6.20
2022-09-28T03:29:48.607Z,6.25
2022-09-28T03:35:14.597Z,6.27
2022-09-28T03:40:41.601Z,6.30
2022-09-28T03:46:08.705Z,6.31
2022-09-28T03:51:37.553Z,6.31
2022-09-28T03:57:05.560Z,6.36
2022-09-28T04:02:29.633Z,6.38
2022-09-28T04:07:54.561Z,6.41
2022-09-28T04:13:15.643Z,6.43
2022-09-28T04:18:33.591Z,6.46
2022-09-28T04:24:18.604Z,6.52
2022-09-28T04:29:45.619Z,6.53
2022-09-28T04:35:10.600Z,6.55
2022-09-28T04:40:34.665Z,6.58
2022-09-28T04:46:02.716Z,6.61
2022-09-28T04:51:33.597Z,6.64
2022-09-28T04:56:59.608Z,6.66
2022-09-28T05:02:26.678Z,6.67
2022-09-28T05:08:15.618Z,6.70
2022-09-28T05:13:42.686Z,6.71
2022-09-28T05:19:12.627Z,6.70
2022-09-28T05:24:37.635Z,6.71
2022-09-28T05:30:01.627Z,6.70
2022-09-28T05:35:51.042Z,6.74
2022-09-28T05:41:18.659Z,6.73
2022-09-28T05:46:43.620Z,6.75
2022-09-28T05:52:10.625Z,6.75
2022-09-28T05:57:36.652Z,6.79
2022-09-28T06:03:10.633Z,6.83
2022-09-28T06:08:40.647Z,6.85
2022-09-28T06:14:31.639Z,6.89
2022-09-28T06:19:58.617Z,6.92
2022-09-28T06:25:41.641Z,6.94
2022-09-28T06:31:09.771Z,6.96
2022-09-28T06:36:37.669Z,6.97
2022-09-28T06:42:05.626Z,6.99
2022-09-28T06:47:49.655Z,6.98
2022-09-28T06:53:23.631Z,6.99
2022-09-28T06:59:02.676Z,6.97
2022-09-28T07:04:34.676Z,6.97
2022-09-28T07:10:03.680Z,6.96
2022-09-28T07:15:53.716Z,6.98
2022-09-28T07:21:28.050Z,7.02
2022-09-28T07:26:55.682Z,7.07
2022-09-28T07:32:38.691Z,7.14
2022-09-28T07:38:13.671Z,7.17
2022-09-28T07:43:38.706Z,7.21
2022-09-28T07:49:08.420Z,7.20
2022-09-28T07:54:52.670Z,7.25
2022-09-28T08:00:44.708Z,7.30
2022-09-28T08:06:20.665Z,7.33
2022-09-28T08:11:45.693Z,7.39
2022-09-28T08:17:28.670Z,7.45
2022-09-28T08:22:59.701Z,7.55
2022-09-28T08:28:25.700Z,7.65
2022-09-28T08:34:06.715Z,7.77
2022-09-28T08:39:55.725Z,7.93
2022-09-28T08:45:43.724Z,7.89
2022-09-28T08:51:37.710Z,7.81
2022-09-28T09:02:54.860Z,7.77
2022-09-28T09:08:42.738Z,7.82
2022-09-28T09:14:30.726Z,7.94
2022-09-28T09:20:06.735Z,8.08
2022-09-28T09:26:01.738Z,8.17
2022-09-28T09:31:34.719Z,8.06
2022-09-28T09:37:24.732Z,8.09
2022-09-28T09:43:48.749Z,8.12
2022-09-28T09:49:37.731Z,8.09
2022-09-28T09:55:09.731Z,8.10
2022-09-28T10:00:44.746Z,8.30
2022-09-28T10:06:33.800Z,8.46
2022-09-28T10:12:02.760Z,8.62
2022-09-28T10:17:33.722Z,8.83
2022-09-28T10:23:26.759Z,8.72
2022-09-28T10:29:00.748Z,8.77
2022-09-28T10:34:28.736Z,8.65
2022-09-28T10:40:07.764Z,8.76
2022-09-28T10:45:38.809Z,8.73
2022-09-28T10:51:18.786Z,8.60
2022-09-28T10:56:49.778Z,8.70
2022-09-28T11:02:41.821Z,8.82
2022-09-28T11:08:20.807Z,8.93
2022-09-28T11:13:53.844Z,8.81
2022-09-28T11:19:44.769Z,8.64
2022-09-28T11:25:30.761Z,8.81
2022-09-28T11:31:01.825Z,9.22
2022-09-28T11:37:11.796Z,9.34
2022-09-28T11:42:50.852Z,9.21
2022-09-28T11:48:19.833Z,8.90
2022-09-28T11:54:02.797Z,8.83
2022-09-28T11:59:33.812Z,9.00
2022-09-28T12:05:11.736Z,9.06
2022-09-28T12:10:45.790Z,9.48
2022-09-28T12:16:53.678Z,9.62
2022-09-28T12:22:14.824Z,9.81
2022-09-28T12:27:46.821Z,9.95
2022-09-28T12:33:17.793Z,10.01
2022-09-28T12:39:17.663Z,10.38
2022-09-28T12:44:59.628Z,10.38
2022-09-28T12:50:40.795Z,10.38
2022-09-28T12:56:13.381Z,10.23
2022-09-28T13:01:56.943Z,10.00
2022-09-28T13:07:37.866Z,9.97
2022-09-28T13:13:15.832Z,10.03
2022-09-28T13:18:46.926Z,9.91
2022-09-28T13:24:31.745Z,10.35
2022-09-28T13:30:00.827Z,10.51
2022-09-28T13:35:27.839Z,10.27
2022-09-28T13:41:22.901Z,10.09
2022-09-28T13:46:58.861Z,9.86
2022-09-28T13:52:27.866Z,9.61
2022-09-28T13:57:57.875Z,9.38
2022-09-28T14:03:41.863Z,9.40
2022-09-28T14:09:31.872Z,9.40
2022-09-28T14:15:06.875Z,9.45
2022-09-28T14:20:36.904Z,9.91
2022-09-28T14:26:14.886Z,10.31
2022-09-28T14:31:40.115Z,10.81
2022-09-28T14:37:19.891Z,11.13
2022-09-28T14:42:44.897Z,11.45
2022-09-28T14:48:30.978Z,11.59
2022-09-28T14:53:59.893Z,11.57
2022-09-28T14:59:31.910Z,11.63
2022-09-28T15:05:00.117Z,11.81
2022-09-28T15:10:38.911Z,11.54
2022-09-28T15:16:08.940Z,10.89
2022-09-28T15:21:35.100Z,10.60
2022-09-28T15:27:03.898Z,10.60
2022-09-28T15:32:40.891Z,10.56
2022-09-28T15:38:05.919Z,10.72
2022-09-28T15:43:44.913Z,10.57
2022-09-28T15:49:10.963Z,10.60
2022-09-28T15:54:41.923Z,10.35
2022-09-28T16:00:09.969Z,10.17
2022-09-28T16:05:48.052Z,10.03
2022-09-28T16:11:22.020Z,9.92
2022-09-28T16:16:54.420Z,9.86
2022-09-28T16:22:29.957Z,9.65
2022-09-28T16:27:58.054Z,9.50
2022-09-28T16:33:47.970Z,9.52
2022-09-28T16:39:12.003Z,9.45
2022-09-28T16:44:40.980Z,9.37
2022-09-28T16:50:09.010Z,9.27
2022-09-28T16:55:40.552Z,9.02
2022-09-28T17:01:04.959Z,8.89
2022-09-28T17:06:33.991Z,8.66
2022-09-28T17:12:02.961Z,8.48
2022-09-28T17:17:27.960Z,8.35
2022-09-28T17:22:54.993Z,8.24
2022-09-28T17:28:27.977Z,8.09
2022-09-28T17:33:52.956Z,8.00
2022-09-28T17:39:24.009Z,7.88
2022-09-28T17:44:47.961Z,7.79
2022-09-28T17:50:30.990Z,7.76
2022-09-28T17:55:58.003Z,7.70
2022-09-28T18:01:23.033Z,7.62
2022-09-28T18:06:57.973Z,7.54
2022-09-28T18:12:25.981Z,7.45
2022-09-28T18:17:49.997Z,7.38
2022-09-28T18:23:14.998Z,7.29
2022-09-28T18:28:42.119Z,7.20
2022-09-28T18:34:09.010Z,7.12
2022-09-28T18:39:34.019Z,7.04
2022-09-28T18:45:01.979Z,6.94
2022-09-28T18:50:26.983Z,6.87
2022-09-28T18:55:53.996Z,6.81
2022-09-28T19:01:29.931Z,6.77
2022-09-28T19:07:02.055Z,6.72
2022-09-28T19:12:27.038Z,6.66
2022-09-28T19:17:55.030Z,6.61
2022-09-28T19:23:20.141Z,6.57
2022-09-28T19:28:48.023Z,6.56
2022-09-28T19:34:16.126Z,6.56
2022-09-28T19:39:41.054Z,6.57
2022-09-28T19:45:06.048Z,6.56
2022-09-28T19:50:33.047Z,6.59
2022-09-28T19:56:00.039Z,6.62
2022-09-28T20:01:24.191Z,6.62
2022-09-28T20:06:52.065Z,6.64
2022-09-28T20:12:18.077Z,6.62
2022-09-28T20:17:46.029Z,6.60
2022-09-28T20:23:15.062Z,6.55
2022-09-28T20:28:41.037Z,6.48
2022-09-28T20:34:06.067Z,6.44
2022-09-28T20:39:34.070Z,6.41
2022-09-28T20:44:59.052Z,6.34
2022-09-28T20:50:24.065Z,6.30
2022-09-28T20:55:51.094Z,6.23
2022-09-28T21:01:24.091Z,6.21
2022-09-28T21:06:50.111Z,6.14
2022-09-28T21:12:18.068Z,6.11
2022-09-28T21:17:42.093Z,6.06
2022-09-28T21:23:09.085Z,5.99
2022-09-28T21:28:36.098Z,5.97
2022-09-28T21:34:01.093Z,5.91
2022-09-28T21:39:27.116Z,5.89
2022-09-28T21:44:58.797Z,5.94
2022-09-28T21:50:31.127Z,5.98
2022-09-28T21:55:59.125Z,6.02
2022-09-28T22:01:28.179Z,6.05
2022-09-28T22:06:53.090Z,6.08
2022-09-28T22:12:18.072Z,6.09
2022-09-28T22:17:48.114Z,6.11
2022-09-28T22:23:12.103Z,6.12
2022-09-28T22:28:37.132Z,6.14
2022-09-28T22:34:04.144Z,6.16
2022-09-28T22:39:29.115Z,6.19
2022-09-28T22:44:53.118Z,6.23
2022-09-28T22:50:21.094Z,6.25
2022-09-28T22:55:45.135Z,6.28
2022-09-28T23:01:16.250Z,6.33
2022-09-28T23:06:44.136Z,6.35
2022-09-28T23:12:09.107Z,6.39
2022-09-28T23:17:33.127Z,6.41
2022-09-28T23:23:01.136Z,6.42
2022-09-28T23:28:26.127Z,6.42
2022-09-28T23:33:51.122Z,6.44
2022-09-28T23:39:18.301Z,6.41
2022-09-28T23:44:43.109Z,6.40
2022-09-28T23:50:07.164Z,6.40
2022-09-28T23:55:35.145Z,6.37
